Time;durP1;ratioP1;P1;durP2;ratioP2;P2;SDS_P1;SDS_P2;PMS_P1;PMS_P2;Temp;Humidity;BMP_temperature;BMP_pressure;BME280_temperature;BME280_humidity;BME280_pressure;Samples;Min_cycle;Max_cycle;Signal;HPM_P1;HPM_P2
2021/03/03 00:01:27;;;;;;;;;;;4.60;99.90;;;1.89;85.42;97062.69;10315243;28;1887;-83
2021/03/03 00:06:29;;;;;;;;;;;4.10;99.90;;;1.85;84.96;97063.28;10300571;28;2039;-85
2021/03/03 00:11:31;;;;;;;;;;;3.10;99.90;;;1.75;85.10;97065.41;10308264;28;1948;-86
2021/03/03 00:16:33;;;;;;;;;;;2.90;99.90;;;1.73;84.63;97070.06;10302886;28;1797;-85
2021/03/03 00:21:35;;;;;;;;;;;2.80;99.90;;;1.67;84.82;97074.28;10314014;28;2004;-84
2021/03/03 00:26:37;;;;;;;;;;;2.90;99.90;;;1.64;84.91;97069.34;10307834;28;1807;-85
2021/03/03 00:31:39;;;;;;;;;;;2.80;99.90;;;1.61;84.84;97062.59;10299640;28;2040;-84
2021/03/03 00:36:42;;;;;;;;;;;2.70;99.90;;;1.61;85.24;97056.47;10307685;28;1997;-83
2021/03/03 00:41:44;;;;;;;;;;;2.80;99.90;;;1.59;85.23;97059.31;10294234;28;1954;-86
2021/03/03 00:46:46;;;;;;;;;;;4.20;99.90;;;1.55;84.62;97051.91;10302542;28;1658;-82
2021/03/03 00:51:48;;;;;;;;;;;3.90;99.90;;;1.46;84.92;97045.88;10315688;28;1885;-85
2021/03/03 00:56:50;;;;;;;;;;;2.60;99.90;;;1.43;84.99;97038.31;10300545;28;1969;-82
2021/03/03 01:01:52;;;;;;;;;;;2.70;99.90;;;1.41;84.69;97034.22;10317197;28;1932;-83
2021/03/03 01:06:54;;;;;;;;;;;2.50;99.90;;;1.49;83.98;97034.09;10304470;28;1901;-83
2021/03/03 01:11:59;;;;;;;;;;;2.90;99.90;;;1.49;83.31;97026.97;10331884;28;2109;-84
2021/03/03 01:17:04;;;;;;;;;;;2.60;99.90;;;1.54;82.87;97014.00;10296561;28;2315;-84
2021/03/03 01:22:06;;;;;;;;;;;2.70;99.90;;;1.48;82.99;97030.63;10313848;28;2168;-85
2021/03/03 01:27:08;;;;;;;;;;;4.10;99.90;;;1.47;82.43;97028.19;10298276;28;2101;-84
2021/03/03 01:32:10;;;;;;;;;;;2.60;99.90;;;1.40;82.67;97020.16;10308793;28;1920;-84
2021/03/03 01:37:13;;;;;;;;;;;2.50;99.90;;;1.39;82.00;97018.47;10326950;28;1939;-85
2021/03/03 01:42:15;;;;;;;;;;;2.50;99.90;;;1.32;81.88;97014.94;10302183;28;2093;-83
2021/03/03 01:47:17;;;;;;;;;;;2.50;99.90;;;1.24;81.60;97007.09;10292601;28;2128;-86
2021/03/03 01:52:19;;;;;;;;;;;2.40;99.90;;;1.23;81.62;97000.97;10318854;28;2093;-84
2021/03/03 01:57:21;;;;;;;;;;;3.10;99.90;;;1.20;80.77;96995.22;10304028;28;2031;-82
2021/03/03 02:02:24;;;;;;;;;;;2.30;99.90;;;1.18;80.17;97003.34;10318160;28;1899;-85
2021/03/03 02:07:26;;;;;;;;;;;2.30;99.90;;;1.09;80.30;96996.53;10302291;28;2123;-84
2021/03/03 02:12:28;;;;;;;;;;;3.00;99.90;;;1.05;80.65;96998.72;10311428;28;1996;-84
2021/03/03 02:17:30;;;;;;;;;;;2.20;99.90;;;1.03;79.81;97000.72;10322716;28;2233;-85
2021/03/03 02:22:35;;;;;;;;;;;3.50;99.90;;;0.96;80.22;96999.81;10338830;28;1890;-84
2021/03/03 02:27:36;;;;;;;;;;;2.10;99.90;;;0.91;80.44;96991.59;10344699;28;2026;-83
2021/03/03 02:32:39;;;;;;;;;;;2.10;99.90;;;0.88;80.92;96997.25;10324627;28;2121;-85
2021/03/03 02:37:41;;;;;;;;;;;4.00;99.90;;;0.79;80.90;96988.59;10312163;28;2056;-86
2021/03/03 02:42:43;;;;;;;;;;;1.90;99.90;;;0.75;80.81;97007.66;10301545;28;2095;-81
2021/03/03 02:47:45;;;;;;;;;;;1.90;99.90;;;0.80;81.11;97005.28;10312431;28;1989;-82
2021/03/03 02:52:47;;;;;;;;;;;2.90;99.90;;;0.81;81.18;96996.34;10313042;28;2078;-86
2021/03/03 02:57:50;;;;;;;;;;;2.00;99.90;;;0.75;81.54;97008.47;10312944;28;2040;-83
2021/03/03 03:02:52;;;;;;;;;;;1.90;99.90;;;0.72;81.63;96998.25;10302575;28;2053;-83
2021/03/03 03:07:54;;;;;;;;;;;2.90;99.90;;;0.65;81.36;97001.81;10313676;28;2060;-82
2021/03/03 03:12:56;;;;;;;;;;;1.90;99.90;;;0.64;81.98;96994.88;10324636;28;2089;-84
2021/03/03 03:17:58;;;;;;;;;;;2.90;99.90;;;0.53;82.17;96989.03;10314461;28;2157;-81
2021/03/03 03:23:03;;;;;;;;;;;1.70;99.90;;;0.54;82.31;96988.00;10312965;28;1947;-84
2021/03/03 03:28:05;;;;;;;;;;;1.70;99.90;;;0.48;82.30;96978.16;10311936;28;1933;-83
2021/03/03 03:33:08;;;;;;;;;;;1.90;99.90;;;0.45;82.74;96989.09;10311718;28;2068;-82
2021/03/03 03:38:10;;;;;;;;;;;3.10;99.90;;;0.46;82.63;96987.28;10317224;28;2165;-83
2021/03/03 03:43:12;;;;;;;;;;;2.80;99.90;;;0.46;82.86;96992.56;10302541;28;2391;-82
2021/03/03 03:48:14;;;;;;;;;;;1.60;99.90;;;0.41;82.56;96987.81;10304165;28;2328;-84
2021/03/03 03:53:17;;;;;;;;;;;2.90;99.90;;;0.36;82.60;96987.53;10326387;28;1541;-83
2021/03/03 03:58:19;;;;;;;;;;;1.50;99.90;;;0.37;83.10;96988.34;10306336;28;2032;-85
2021/03/03 04:03:21;;;;;;;;;;;2.30;99.90;;;0.35;82.80;96999.13;10327181;28;2001;-83
2021/03/03 04:08:23;;;;;;;;;;;3.20;99.90;;;0.40;82.73;97010.00;10314928;28;2144;-82
2021/03/03 04:13:25;;;;;;;;;;;3.00;99.90;;;0.39;82.17;97013.63;10318484;28;2039;-84
2021/03/03 04:18:28;;;;;;;;;;;1.50;99.90;;;0.29;83.15;97006.94;10311086;28;2052;-84
2021/03/03 04:23:30;;;;;;;;;;;1.40;99.90;;;0.21;83.34;97010.50;10293399;28;2027;-86
2021/03/03 04:28:32;;;;;;;;;;;1.70;99.90;;;0.19;83.34;97012.47;10309663;28;2026;-85
2021/03/03 04:33:34;;;;;;;;;;;1.90;99.90;;;0.20;83.70;97014.13;10309471;28;2280;-84
2021/03/03 04:38:36;;;;;;;;;;;2.60;99.90;;;0.19;83.47;97017.75;10312861;28;2108;-83
2021/03/03 04:43:38;;;;;;;;;;;2.70;99.90;;;0.19;83.49;97018.59;10331170;28;1893;-83
2021/03/03 04:48:40;;;;;;;;;;;3.10;99.90;;;0.18;83.44;97018.75;10334812;28;1986;-82
2021/03/03 04:53:42;;;;;;;;;;;2.80;99.90;;;0.17;83.32;97017.13;10319907;28;1985;-84
2021/03/03 04:58:44;;;;;;;;;;;1.30;99.90;;;0.15;83.84;97008.56;10337883;28;1914;-84
2021/03/03 05:03:46;;;;;;;;;;;2.20;99.90;;;0.11;83.56;97009.91;10318699;28;1932;-83
2021/03/03 05:08:48;;;;;;;;;;;2.10;99.90;;;0.10;84.13;96995.84;10326940;28;1791;-85
2021/03/03 05:13:50;;;;;;;;;;;2.80;99.90;;;0.07;84.20;97004.16;10323921;28;2128;-83
2021/03/03 05:18:52;;;;;;;;;;;2.70;99.90;;;0.07;83.58;96988.28;10310953;28;2094;-86
2021/03/03 05:23:54;;;;;;;;;;;1.40;99.90;;;0.14;83.47;96993.69;10331077;28;2045;-85
2021/03/03 05:28:56;;;;;;;;;;;1.80;99.90;;;0.16;83.69;96992.50;10319234;28;2003;-84
2021/03/03 05:34:00;;;;;;;;;;;2.40;99.90;;;0.15;83.20;96990.03;10308737;28;1863;-84
2021/03/03 05:39:04;;;;;;;;;;;1.30;99.90;;;0.18;83.44;96979.09;10328133;28;1928;-82
2021/03/03 05:44:08;;;;;;;;;;;1.30;99.90;;;0.28;82.43;96979.69;10318617;28;2393;-80
2021/03/03 05:49:10;;;;;;;;;;;1.30;99.90;;;0.41;81.93;96977.25;10328893;28;2051;-82
2021/03/03 05:54:13;;;;;;;;;;;2.50;99.90;;;0.62;80.55;96976.53;10335179;28;1851;-84
2021/03/03 05:59:15;;;;;;;;;;;2.70;99.90;;;0.84;79.47;96989.88;10315213;28;2001;-82
2021/03/03 06:04:18;;;;;;;;;;;1.70;99.90;;;1.02;78.48;96983.19;10349673;28;1960;-80
2021/03/03 06:09:20;;;;;;;;;;;2.90;99.90;;;1.25;77.50;96982.25;10348631;28;2076;-83
2021/03/03 06:14:22;;;;;;;;;;;2.00;99.90;;;1.47;76.36;96983.94;10323684;28;2037;-83
2021/03/03 06:19:24;;;;;;;;;;;3.40;99.90;;;1.81;75.48;96979.81;10307653;28;2313;-84
2021/03/03 06:24:26;;;;;;;;;;;4.00;99.90;;;2.07;73.17;96988.00;10306026;28;1920;-84
2021/03/03 06:29:28;;;;;;;;;;;3.20;99.90;;;2.40;72.83;96979.50;10305374;28;2004;-84
2021/03/03 06:34:30;;;;;;;;;;;3.10;99.90;;;2.64;72.24;96979.06;10318636;28;1862;-82
2021/03/03 06:39:32;;;;;;;;;;;3.80;99.90;;;2.83;71.42;96976.75;10312663;28;2026;-86
2021/03/03 06:44:34;;;;;;;;;;;4.60;99.90;;;3.03;70.66;96972.34;10311800;28;2341;-84
2021/03/03 06:49:36;;;;;;;;;;;3.70;99.90;;;3.22;68.97;96974.28;10320995;28;2483;-85
2021/03/03 06:54:38;;;;;;;;;;;5.30;99.90;;;3.39;68.69;96973.97;10306928;28;1822;-83
2021/03/03 06:59:40;;;;;;;;;;;5.10;99.90;;;3.60;67.91;96968.50;10318793;28;2093;-83
2021/03/03 07:04:42;;;;;;;;;;;4.40;99.90;;;3.79;65.53;96973.06;10312197;28;1914;-84
2021/03/03 07:09:45;;;;;;;;;;;4.60;99.90;;;4.13;64.30;96968.59;10315673;28;1987;-83
2021/03/03 07:14:47;;;;;;;;;;;6.10;99.90;;;4.34;63.86;96971.06;10318569;28;1934;-84
2021/03/03 07:19:50;;;;;;;;;;;5.90;99.90;;;4.57;63.26;96975.97;10319509;28;2033;-84
2021/03/03 07:24:52;;;;;;;;;;;5.20;99.90;;;4.83;62.03;96991.09;10330135;28;2004;-81
2021/03/03 07:29:58;;;;;;;;;;;5.50;99.90;;;5.12;61.29;96989.00;10312868;28;2072;-84
2021/03/03 07:35:16;;;;;;;;;;;6.20;99.90;;;5.36;60.25;96996.31;10330638;28;2004;-84
2021/03/03 07:40:30;;;;;;;;;;;6.00;99.90;;;5.61;59.32;96985.75;10321239;28;1965;-83
2021/03/03 07:45:33;;;;;;;;;;;6.30;99.90;;;5.95;57.41;96987.22;10328925;28;2059;-83
2021/03/03 07:50:44;;;;;;;;;;;6.60;99.90;;;6.22;56.91;96984.38;10311750;28;2087;-84
2021/03/03 07:55:49;;;;;;;;;;;6.80;99.90;;;6.74;53.64;96983.16;10331901;28;1917;-83
2021/03/03 08:00:53;;;;;;;;;;;7.10;98.10;;;7.16;52.79;96979.84;10334279;28;1962;-84
2021/03/03 08:05:56;;;;;;;;;;;9.40;96.00;;;7.55;50.66;96967.88;10325457;28;2020;-84
2021/03/03 08:11:04;;;;;;;;;;;8.60;91.70;;;7.83;50.10;96970.81;10326288;28;2024;-81
2021/03/03 08:16:12;;;;;;;;;;;9.50;89.30;;;7.99;48.54;96973.88;10323782;28;2024;-84
2021/03/03 08:21:14;;;;;;;;;;;8.60;86.70;;;8.02;48.23;96976.13;10320354;28;2465;-84
2021/03/03 08:26:24;;;;;;;;;;;10.50;84.90;;;8.23;48.45;96966.75;10330131;28;1809;-83
2021/03/03 08:31:39;;;;;;;;;;;8.80;83.00;;;8.32;47.43;96968.03;10308790;28;1956;-82
2021/03/03 08:37:20;;;;;;;;;;;10.00;81.70;;;8.63;47.43;96965.09;10329462;28;1809;-86
2021/03/03 08:43:10;;;;;;;;;;;;;;;;;;;;;
2021/03/03 08:48:20;;;;;;;;;;;10.00;79.20;;;9.05;45.32;96964.97;10305646;28;1964;-84
2021/03/03 08:53:48;;;;;;;;;;;9.70;77.50;;;9.52;44.38;96967.56;10316689;28;1755;-85
2021/03/03 08:59:07;;;;;;;;;;;10.00;76.90;;;9.56;43.37;96967.94;10310789;28;2143;-83
2021/03/03 09:09:54;;;;;;;;;;;10.50;74.10;;;10.21;41.59;96970.22;10302150;28;2069;-83
2021/03/03 09:15:01;;;;;;;;;;;10.90;72.30;;;10.47;40.37;96968.81;10303344;28;1976;-85
2021/03/03 09:20:11;;;;;;;;;;;11.10;70.20;;;10.65;40.21;96970.47;10319591;28;1905;-84
2021/03/03 09:31:11;;;;;;;;;;;11.50;68.50;;;10.74;39.39;96955.53;10293340;28;2043;-85
2021/03/03 09:36:21;;;;;;;;;;;11.70;66.40;;;11.25;38.57;96954.38;10296003;28;1831;-83
2021/03/03 09:41:43;;;;;;;;;;;11.90;66.60;;;11.59;38.46;96959.69;10306386;28;2067;-84
2021/03/03 09:46:58;;;;;;;;;;;12.10;65.90;;;12.00;36.97;96946.69;10310094;28;2014;-83
2021/03/03 09:52:16;;;;;;;;;;;12.40;65.10;;;12.03;37.02;96944.31;10324288;28;1990;-86
2021/03/03 09:57:41;;;;;;;;;;;12.70;64.40;;;12.26;37.15;96943.19;10331022;28;1952;-83
2021/03/03 10:02:52;;;;;;;;;;;12.70;63.90;;;11.92;36.00;96949.84;10322171;28;1851;-84
2021/03/03 10:08:00;;;;;;;;;;;12.80;61.30;;;11.94;35.55;96945.00;10301929;28;2021;-84
2021/03/03 10:13:05;;;;;;;;;;;12.70;61.10;;;12.50;35.35;96945.56;10319457;28;1981;-84
2021/03/03 10:18:10;;;;;;;;;;;13.00;61.10;;;12.67;34.80;96946.25;10305828;28;2005;-84
2021/03/03 10:23:25;;;;;;;;;;;13.20;60.30;;;12.69;33.10;96946.78;10307127;28;1886;-84
2021/03/03 10:40:48;;;;;;;;;;;14.10;56.10;;;13.60;31.40;96916.00;10309176;28;2131;-86
2021/03/03 10:58:32;;;;;;;;;;;14.20;54.30;;;13.59;31.34;96926.00;10292630;28;2039;-84
2021/03/03 11:04:03;;;;;;;;;;;14.30;54.50;;;13.82;30.89;96922.03;10321969;28;1954;-86
2021/03/03 11:14:53;;;;;;;;;;;14.90;53.40;;;14.25;30.56;96909.13;10311428;28;1957;-83
2021/03/03 11:20:13;;;;;;;;;;;15.10;52.90;;;14.52;29.24;96909.72;10318883;28;1988;-86
2021/03/03 11:25:22;;;;;;;;;;;15.10;52.70;;;14.51;30.17;96902.69;10311121;28;2022;-83
2021/03/03 11:30:33;;;;;;;;;;;15.30;52.00;;;14.45;29.95;96902.94;10300552;28;2102;-84
2021/03/03 11:35:36;;;;;;;;;;;15.40;51.60;;;14.84;29.16;96903.22;10308697;28;1989;-84
2021/03/03 11:41:02;;;;;;;;;;;;;;;14.63;29.67;96886.16;10292482;28;2023;-85
2021/03/03 11:46:26;;;;;;;;;;;15.60;51.00;;;15.01;28.55;96884.75;10298739;28;1981;-84
2021/03/03 11:51:29;;;;;;;;;;;15.60;50.20;;;15.12;28.71;96878.22;10326274;28;1963;-83
2021/03/03 11:56:46;;;;;;;;;;;15.70;50.30;;;15.11;28.50;96871.19;10324754;28;2054;-83
2021/03/03 12:01:51;;;;;;;;;;;15.70;50.20;;;15.19;28.28;96866.28;10328808;28;1708;-86
2021/03/03 12:07:05;;;;;;;;;;;15.80;50.00;;;14.56;29.23;96862.09;10318239;28;2016;-86
2021/03/03 12:12:11;;;;;;;;;;;15.70;49.80;;;14.63;29.56;96855.59;10319624;28;2007;-82
2021/03/03 12:17:27;;;;;;;;;;;15.50;50.50;;;14.72;30.03;96853.97;10327661;28;1635;-83
2021/03/03 12:22:40;;;;;;;;;;;15.60;50.60;;;14.96;29.12;96840.66;10307993;28;1895;-83
2021/03/03 12:27:44;;;;;;;;;;;15.80;50.20;;;15.03;29.11;96836.56;10322109;28;1845;-83
2021/03/03 12:32:54;;;;;;;;;;;15.80;50.10;;;14.84;28.63;96824.72;10318181;28;1977;-85
2021/03/03 12:37:58;;;;;;;;;;;15.90;49.30;;;15.07;27.55;96818.66;10312604;28;1863;-83
2021/03/03 12:43:24;;;;;;;;;;;15.80;48.70;;;15.00;28.68;96806.50;10325762;28;2231;-85
2021/03/03 12:48:27;;;;;;;;;;;15.60;49.10;;;14.95;27.26;96806.53;10306379;28;2012;-87
2021/03/03 12:53:31;;;;;;;;;;;15.70;48.40;;;14.86;27.90;96811.69;10313392;28;2085;-86
2021/03/03 12:58:34;;;;;;;;;;;15.60;48.60;;;14.81;28.43;96811.72;10320795;28;2043;-86
2021/03/03 13:03:36;;;;;;;;;;;15.50;48.90;;;14.78;28.40;96798.75;10321377;28;2038;-84
2021/03/03 13:08:44;;;;;;;;;;;15.50;49.60;;;14.70;29.51;96792.00;10316332;28;2235;-85
2021/03/03 13:13:48;;;;;;;;;;;15.40;50.60;;;14.41;28.40;96794.44;10310423;28;2024;-84
2021/03/03 13:19:04;;;;;;;;;;;15.20;50.00;;;14.23;28.51;96792.31;10320141;28;2139;-87
2021/03/03 13:24:14;;;;;;;;;;;15.00;49.80;;;14.29;29.46;96785.81;10312800;28;2130;-85
2021/03/03 13:29:21;;;;;;;;;;;14.90;51.70;;;14.28;29.31;96789.59;10307642;28;1966;-84
2021/03/03 13:34:27;;;;;;;;;;;15.00;51.50;;;13.83;29.89;96783.13;10303912;28;1990;-86
2021/03/03 13:39:36;;;;;;;;;;;14.80;52.70;;;13.70;30.17;96786.34;10313347;28;2325;-83
2021/03/03 13:44:54;;;;;;;;;;;14.60;53.60;;;13.47;30.67;96779.56;10309758;28;2390;-83
2021/03/03 13:50:07;;;;;;;;;;;14.50;54.70;;;13.50;30.90;96779.03;10301755;28;1836;-85
2021/03/03 13:55:29;;;;;;;;;;;;;;;;;;;;;
2021/03/03 14:00:45;;;;;;;;;;;14.20;53.70;;;13.17;31.48;96770.28;10317078;28;1999;-85
2021/03/03 14:05:53;;;;;;;;;;;14.00;54.60;;;13.08;30.63;96765.66;10309289;28;1889;-83
2021/03/03 14:11:21;;;;;;;;;;;14.00;55.20;;;13.16;31.41;96751.63;10314624;28;1941;-82
2021/03/03 14:16:38;;;;;;;;;;;13.90;55.90;;;12.81;32.05;96755.84;10305975;28;1787;-86
2021/03/03 14:21:51;;;;;;;;;;;13.90;55.10;;;12.86;32.28;96757.75;10317694;28;1894;-85
2021/03/03 14:27:14;;;;;;;;;;;13.80;56.70;;;12.90;32.56;96751.56;10313834;28;1808;-85
2021/03/03 14:32:25;;;;;;;;;;;13.70;56.30;;;12.82;33.44;96751.25;10323935;28;1928;-84
2021/03/03 14:37:40;;;;;;;;;;;13.60;55.90;;;12.73;33.34;96748.28;10319232;28;2004;-85
2021/03/03 14:42:56;;;;;;;;;;;13.50;56.30;;;12.61;33.08;96739.56;10324388;28;2071;-85
2021/03/03 14:48:12;;;;;;;;;;;13.40;56.60;;;12.61;34.07;96734.19;10305713;28;2114;-85
2021/03/03 14:53:18;;;;;;;;;;;13.40;56.40;;;12.48;33.38;96723.88;10313301;28;2092;-86
2021/03/03 14:58:21;;;;;;;;;;;13.40;55.50;;;12.37;33.41;96718.41;10318338;28;2044;-84
2021/03/03 15:03:26;;;;;;;;;;;13.30;55.10;;;12.34;33.37;96708.16;10308235;28;1983;-85
2021/03/03 15:08:31;;;;;;;;;;;13.30;54.90;;;12.23;33.20;96703.78;10320863;28;1991;-83
2021/03/03 15:13:46;;;;;;;;;;;13.20;55.30;;;12.20;33.61;96701.59;10321093;28;1974;-84
2021/03/03 15:18:50;;;;;;;;;;;13.10;55.20;;;12.16;34.02;96701.31;10332084;28;2138;-86
2021/03/03 15:23:56;;;;;;;;;;;13.00;55.60;;;12.08;34.65;96693.72;10337856;28;1977;-85
2021/03/03 15:29:03;;;;;;;;;;;12.90;55.40;;;11.93;34.60;96690.13;10371908;23;3541;-84
2021/03/03 15:34:12;;;;;;;;;;;12.80;54.50;;;11.85;35.44;96683.34;10322899;28;2250;-85
2021/03/03 15:39:19;;;;;;;;;;;12.70;56.70;;;11.64;35.94;96677.78;10327831;28;2290;-85
2021/03/03 15:44:24;;;;;;;;;;;12.70;57.80;;;11.52;35.78;96673.66;10340701;28;1949;-85
2021/03/03 15:49:31;;;;;;;;;;;12.30;55.50;;;11.40;36.75;96675.69;10312203;28;2003;-84
2021/03/03 15:54:37;;;;;;;;;;;12.40;56.90;;;11.24;37.33;96661.28;10304012;28;2054;-84
2021/03/03 15:59:40;;;;;;;;;;;12.30;57.10;;;11.03;37.79;96668.38;10318032;28;1948;-84
2021/03/03 16:04:48;;;;;;;;;;;12.10;57.80;;;10.86;38.24;96670.34;10317518;28;1981;-82
2021/03/03 16:09:55;;;;;;;;;;;11.90;58.30;;;10.71;38.64;96663.72;10344914;28;1980;-84
2021/03/03 16:14:57;;;;;;;;;;;11.80;58.50;;;10.51;39.63;96663.50;10293797;28;2140;-84
2021/03/03 16:20:00;;;;;;;;;;;11.60;58.40;;;10.31;40.11;96660.56;10333914;28;1985;-86
2021/03/03 16:25:14;;;;;;;;;;;11.40;58.20;;;10.10;40.89;96654.91;10305403;28;2345;-83
2021/03/03 16:30:23;;;;;;;;;;;11.10;59.00;;;9.92;41.47;96660.56;10304334;28;1892;-84
2021/03/03 16:35:31;;;;;;;;;;;11.00;59.50;;;9.70;42.66;96663.22;10296393;28;2401;-85
2021/03/03 16:40:48;;;;;;;;;;;10.80;60.40;;;9.49;43.26;96667.47;10314778;28;1965;-84
2021/03/03 16:45:54;;;;;;;;;;;10.60;61.00;;;9.32;43.81;96661.28;10318729;28;1502;-82
2021/03/03 16:50:56;;;;;;;;;;;10.50;61.50;;;9.17;44.50;96668.03;10348100;28;1879;-83
2021/03/03 16:55:59;;;;;;;;;;;10.40;62.20;;;9.01;45.39;96660.75;10328724;28;2161;-85
2021/03/03 17:01:05;;;;;;;;;;;10.50;63.20;;;8.82;45.45;96656.66;10316519;28;1951;-84
2021/03/03 17:06:15;;;;;;;;;;;10.20;63.50;;;8.69;45.95;96646.22;10328741;28;1895;-84
2021/03/03 17:11:23;;;;;;;;;;;10.00;63.90;;;8.59;46.26;96655.72;10323634;28;2043;-84
2021/03/03 17:16:26;;;;;;;;;;;9.80;64.40;;;8.47;46.66;96663.00;10339806;28;1814;-82
2021/03/03 17:21:33;;;;;;;;;;;10.00;64.90;;;8.37;47.29;96658.22;10334836;28;1935;-86
2021/03/03 17:26:37;;;;;;;;;;;9.70;65.50;;;8.31;47.31;96651.09;10313420;28;1909;-83
2021/03/03 17:31:43;;;;;;;;;;;9.50;65.80;;;8.20;47.99;96659.16;10293642;28;1991;-85
2021/03/03 17:36:46;;;;;;;;;;;10.10;66.40;;;8.13;48.21;96653.94;10302828;28;2054;-82
2021/03/03 17:41:53;;;;;;;;;;;9.40;66.70;;;8.04;49.62;96655.38;10321761;28;1991;-86
2021/03/03 17:46:57;;;;;;;;;;;10.00;67.70;;;7.96;49.45;96659.25;10297774;28;1783;-83
2021/03/03 17:52:02;;;;;;;;;;;9.10;67.80;;;7.89;49.45;96652.34;10287133;28;2101;-82
2021/03/03 17:57:05;;;;;;;;;;;9.70;68.20;;;7.88;49.78;96650.72;10323985;28;1964;-85
2021/03/03 18:02:13;;;;;;;;;;;10.00;68.80;;;7.80;50.18;96643.88;10322482;28;2164;-85
2021/03/03 18:07:20;;;;;;;;;;;9.00;68.60;;;7.71;50.13;96639.94;10357741;28;1961;-84
2021/03/03 18:12:32;;;;;;;;;;;10.00;69.50;;;7.67;50.37;96644.94;10328292;28;2000;-83
2021/03/03 18:17:43;;;;;;;;;;;8.90;69.00;;;7.66;50.88;96645.19;10333357;28;2052;-85
2021/03/03 18:23:00;;;;;;;;;;;9.10;69.10;;;7.61;51.55;96634.34;10305100;28;1976;-86
2021/03/03 18:28:18;;;;;;;;;;;8.80;69.70;;;7.58;50.61;96633.78;10314224;28;2035;-84
2021/03/03 18:33:21;;;;;;;;;;;9.50;70.10;;;7.51;51.60;96635.75;10354190;28;2004;-84
2021/03/03 18:38:31;;;;;;;;;;;9.80;70.60;;;7.45;52.24;96634.03;10332828;28;2031;-86
2021/03/03 18:43:44;;;;;;;;;;;8.70;70.50;;;7.34;52.34;96629.47;10327792;28;2282;-84
2021/03/03 18:48:57;;;;;;;;;;;8.80;71.30;;;7.23;54.07;96619.56;10330234;28;1919;-85
2021/03/03 18:54:10;;;;;;;;;;;9.70;72.70;;;7.16;54.49;96616.19;10318013;28;2476;-85
2021/03/03 18:59:13;;;;;;;;;;;9.70;73.60;;;7.08;54.67;96609.34;10315777;28;1959;-86
2021/03/03 19:04:19;;;;;;;;;;;8.30;73.20;;;7.01;55.35;96606.78;10322801;28;2071;-84
2021/03/03 19:09:30;;;;;;;;;;;8.20;73.70;;;6.97;56.01;96608.28;10319977;28;2000;-82
2021/03/03 19:14:47;;;;;;;;;;;8.50;74.70;;;6.90;57.32;96602.22;10323090;28;1982;-85
2021/03/03 19:20:03;;;;;;;;;;;8.10;75.20;;;6.85;56.82;96594.06;10319991;28;1905;-83
2021/03/03 19:25:13;;;;;;;;;;;8.90;75.90;;;6.81;56.24;96598.25;10297558;28;2295;-84
2021/03/03 19:30:31;;;;;;;;;;;8.00;75.40;;;6.79;56.15;96600.34;10329789;28;2100;-86
2021/03/03 19:35:41;;;;;;;;;;;8.50;75.80;;;6.77;56.81;96597.09;10306377;28;2069;-84
2021/03/03 19:40:48;;;;;;;;;;;8.10;75.70;;;6.70;57.39;96585.69;10313932;28;2228;-85
2021/03/03 19:45:54;;;;;;;;;;;9.00;76.70;;;6.58;57.86;96582.97;10324384;28;1993;-85
2021/03/03 19:50:59;;;;;;;;;;;7.70;76.40;;;6.52;57.56;96583.06;10326608;28;2090;-86
2021/03/03 19:56:04;;;;;;;;;;;8.90;77.30;;;6.50;57.80;96584.13;10306241;28;2027;-86
2021/03/03 20:01:19;;;;;;;;;;;8.30;77.20;;;6.47;58.20;96573.88;10300170;28;2191;-86
2021/03/03 20:06:28;;;;;;;;;;;7.60;77.40;;;6.39;58.73;96573.41;10304055;28;2030;-86
2021/03/03 20:11:36;;;;;;;;;;;8.00;78.00;;;6.33;58.80;96577.78;10311786;28;2331;-86
2021/03/03 20:16:40;;;;;;;;;;;7.40;77.90;;;6.28;59.44;96568.81;10309779;28;1932;-84
2021/03/03 20:21:43;;;;;;;;;;;7.40;78.40;;;6.25;59.31;96572.78;10309447;28;2062;-84
2021/03/03 20:26:47;;;;;;;;;;;7.40;78.70;;;6.22;59.41;96562.53;10323198;28;2042;-84
2021/03/03 20:32:04;;;;;;;;;;;7.30;78.80;;;6.18;59.90;96562.19;10290672;28;2043;-85
2021/03/03 20:37:07;;;;;;;;;;;7.80;79.30;;;6.11;60.69;96558.81;10284203;28;2095;-84
2021/03/03 20:42:10;;;;;;;;;;;8.40;80.30;;;6.07;60.34;96564.81;10292237;28;2075;-85
2021/03/03 20:47:15;;;;;;;;;;;7.50;79.90;;;6.04;59.85;96560.72;10303595;28;2256;-86
2021/03/03 20:52:21;;;;;;;;;;;7.10;79.60;;;6.02;60.20;96556.66;10293427;28;1964;-85
2021/03/03 20:57:24;;;;;;;;;;;8.40;80.50;;;6.01;60.12;96544.34;10336048;28;1854;-82
2021/03/03 21:02:28;;;;;;;;;;;7.00;79.50;;;5.96;60.08;96553.84;10300534;28;1995;-84
2021/03/03 21:07:33;;;;;;;;;;;8.20;80.60;;;5.94;60.63;96536.44;10298664;28;1982;-83
2021/03/03 21:12:41;;;;;;;;;;;8.20;80.80;;;5.93;60.85;96542.81;10306402;28;2038;-87
2021/03/03 21:23:57;;;;;;;;;;;7.00;80.20;;;5.79;60.56;96531.47;10304676;28;2027;-84
2021/03/03 21:29:00;;;;;;;;;;;6.80;80.20;;;5.76;59.87;96526.56;10296373;28;2147;-86
2021/03/03 21:34:05;;;;;;;;;;;8.30;80.90;;;5.72;60.56;96521.91;10327918;28;2070;-85
2021/03/03 21:39:11;;;;;;;;;;;6.80;80.40;;;5.70;60.66;96517.59;10316725;28;1979;-84
2021/03/03 21:44:18;;;;;;;;;;;6.90;80.90;;;5.61;61.10;96512.81;10337773;28;1951;-84
2021/03/03 21:49:24;;;;;;;;;;;6.60;80.90;;;5.57;60.64;96511.63;10322544;28;1894;-87
2021/03/03 21:54:29;;;;;;;;;;;6.50;81.00;;;5.55;61.69;96513.72;10302297;28;1975;-84
2021/03/03 21:59:33;;;;;;;;;;;7.50;82.00;;;5.52;61.65;96506.16;10301148;28;1900;-86
2021/03/03 22:10:01;;;;;;;;;;;6.60;81.50;;;5.50;61.10;96495.72;10311126;28;1631;-85
2021/03/03 22:15:11;;;;;;;;;;;6.50;81.40;;;5.45;61.34;96490.22;10299497;28;2015;-86
2021/03/03 22:20:25;;;;;;;;;;;7.40;82.00;;;5.43;61.10;96482.47;10307115;28;1955;-85
2021/03/03 22:25:29;;;;;;;;;;;7.40;82.10;;;5.40;61.46;96479.41;10312262;28;2110;-86
2021/03/03 22:30:36;;;;;;;;;;;7.50;82.40;;;5.41;61.20;96476.53;10352594;23;1875;-86
2021/03/03 22:35:41;;;;;;;;;;;6.50;81.80;;;5.38;61.09;96463.66;10335742;28;1895;-85
2021/03/03 22:40:50;;;;;;;;;;;6.80;81.90;;;5.37;60.77;96459.34;10313898;28;2019;-86
2021/03/03 22:45:54;;;;;;;;;;;6.70;82.00;;;5.32;61.39;96459.19;10324193;28;1962;-86
2021/03/03 22:51:03;;;;;;;;;;;7.40;82.20;;;5.29;61.12;96457.00;10319984;28;1629;-87
2021/03/03 22:56:08;;;;;;;;;;;4.50;80.80;;;5.31;60.62;96449.59;10330436;28;1882;-87
2021/03/03 23:01:11;;;;;;;;;;;6.70;90.80;;;5.29;60.93;96451.66;10329088;28;1994;-87
2021/03/03 23:06:13;;;;;;;;;;;6.30;81.90;;;5.26;60.77;96441.44;10334608;28;1700;-85
2021/03/03 23:11:19;;;;;;;;;;;7.40;83.50;;;5.24;61.12;96437.38;10350850;28;1877;-86
2021/03/03 23:16:40;;;;;;;;;;;6.20;81.70;;;5.20;61.06;96431.66;10317381;28;1951;-86
2021/03/03 23:21:42;;;;;;;;;;;7.10;82.40;;;5.20;61.91;96420.19;10334354;28;1900;-87
2021/03/03 23:26:50;;;;;;;;;;;6.10;82.40;;;5.21;61.44;96427.97;10339569;28;2039;-87
2021/03/03 23:31:53;;;;;;;;;;;6.20;82.20;;;5.28;61.16;96418.06;10354045;28;1895;-87
2021/03/03 23:36:55;;;;;;;;;;;6.20;86.00;;;5.29;60.73;96419.69;10341583;28;1771;-87
2021/03/03 23:41:57;;;;;;;;;;;6.30;82.20;;;5.34;61.15;96414.50;10354573;28;1844;-86
2021/03/03 23:47:00;;;;;;;;;;;6.40;82.20;;;5.26;60.84;96417.44;10332903;28;1945;-87
2021/03/03 23:52:05;;;;;;;;;;;6.50;82.10;;;5.20;61.01;96417.53;10316026;28;2014;-88
2021/03/03 23:57:07;;;;;;;;;;;5.80;87.00;;;5.24;61.41;96419.53;10335577;28;1768;-88
